Time;durP1;ratioP1;P1;durP2;ratioP2;P2;SDS_P1;SDS_P2;PMS_P1;PMS_P2;Temp;Humidity;BMP_temperature;BMP_pressure;BME280_temperature;BME280_humidity;BME280_pressure;Samples;Min_cycle;Max_cycle;Signal;HPM_P1;HPM_P2
2023/01/11 00:00:33;;;;;;;4.93;2.10;;;;;;;;;;5011374;28;20053;-65
2023/01/11 00:03:04;;;;;;;2.00;0.82;;;;;;;;;;4961959;28;20062;-62
2023/01/11 00:05:39;;;;;;;3.22;0.98;;;;;;;;;;5007858;28;20065;-63
2023/01/11 00:08:11;;;;;;;2.45;0.88;;;;;;;;;;5008177;28;20045;-62
2023/01/11 00:10:41;;;;;;;1.73;0.73;;;;;;;;;;4959356;28;20058;-65
2023/01/11 00:13:11;;;;;;;1.00;0.50;;;;;;;;;;5020552;28;20061;-63
2023/01/11 00:15:41;;;;;;;1.30;0.52;;;;;;;;;;4988822;28;20054;-62
2023/01/11 00:18:12;;;;;;;0.82;0.50;;;;;;;;;;4968734;28;20054;-61
2023/01/11 00:20:42;;;;;;;1.80;0.68;;;;;;;;;;4905030;28;20055;-61
2023/01/11 00:23:12;;;;;;;3.33;0.63;;;;;;;;;;4969402;28;20055;-62
2023/01/11 00:25:42;;;;;;;2.22;0.90;;;;;;;;;;4969387;28;20063;-61
2023/01/11 00:28:12;;;;;;;3.60;1.55;;;;;;;;;;4937235;28;20407;-61
2023/01/11 00:30:43;;;;;;;3.88;1.27;;;;;;;;;;4933626;28;20422;-62
2023/01/11 00:33:13;;;;;;;4.97;1.00;;;;;;;;;;4918480;28;20047;-61
2023/01/11 00:35:44;;;;;;;7.03;2.50;;;;;;;;;;4924584;28;20056;-62
2023/01/11 00:38:42;;;;;;;2.28;0.98;;;;;;;;;;4950032;28;20502;-62
2023/01/11 00:49:31;;;;;;;3.88;1.02;;;;;;;;;;4972169;28;20525;-62
2023/01/11 00:52:07;;;;;;;3.72;1.00;;;;;;;;;;4961997;28;20553;-65
2023/01/11 00:54:39;;;;;;;1.50;0.88;;;;;;;;;;5011716;28;20509;-62
2023/01/11 00:57:09;;;;;;;0.63;0.40;;;;;;;;;;5051441;28;20083;-62
2023/01/11 00:59:40;;;;;;;1.15;0.65;;;;;;;;;;5051292;28;20041;-63
2023/01/11 01:02:11;;;;;;;1.77;0.77;;;;;;;;;;5001769;28;20065;-62
2023/01/11 01:04:42;;;;;;;4.30;1.02;;;;;;;;;;5051219;28;20056;-63
2023/01/11 01:07:12;;;;;;;3.65;0.90;;;;;;;;;;5051380;28;20145;-62
2023/01/11 01:09:42;;;;;;;3.97;1.75;;;;;;;;;;5073498;28;20045;-62
2023/01/11 01:14:24;;;;;;;3.35;0.93;;;;;;;;;;5073703;28;20047;-62
2023/01/11 01:15:03;;;;;;;2.67;0.73;;;;;;;;;;5073556;28;20037;-61
2023/01/11 01:17:33;;;;;;;2.45;0.88;;;;;;;;;;5073310;28;20040;-63
2023/01/11 01:20:04;;;;;;;1.52;0.70;;;;;;;;;;5073334;28;20051;-62
2023/01/11 01:22:34;;;;;;;2.47;0.80;;;;;;;;;;5037624;28;20064;-62
2023/01/11 01:25:05;;;;;;;2.92;0.80;;;;;;;;;;5073397;28;20044;-62
2023/01/11 01:27:34;;;;;;;1.88;0.80;;;;;;;;;;5073078;28;20052;-61
2023/01/11 01:30:05;;;;;;;2.38;0.85;;;;;;;;;;5072963;28;20048;-62
2023/01/11 01:32:36;;;;;;;3.13;0.80;;;;;;;;;;5038428;28;20052;-62
2023/01/11 01:35:06;;;;;;;3.20;0.90;;;;;;;;;;5073447;28;20040;-62
2023/01/11 01:37:36;;;;;;;2.03;0.80;;;;;;;;;;5073093;28;20036;-62
2023/01/11 01:40:07;;;;;;;2.25;0.82;;;;;;;;;;5073151;28;20068;-62
2023/01/11 01:42:37;;;;;;;3.63;0.70;;;;;;;;;;5072689;28;20045;-66
2023/01/11 01:45:27;;;;;;;1.85;0.77;;;;;;;;;;5037456;28;20056;-62
2023/01/11 01:48:00;;;;;;;2.88;0.65;;;;;;;;;;5072857;28;20041;-64
2023/01/11 01:50:58;;;;;;;4.63;0.63;;;;;;;;;;5072894;28;20040;-62
2023/01/11 01:53:30;;;;;;;3.55;0.73;;;;;;;;;;4991184;28;20557;-62
2023/01/11 01:56:02;;;;;;;2.88;0.82;;;;;;;;;;4990786;28;20073;-63
2023/01/11 01:58:37;;;;;;;3.25;1.02;;;;;;;;;;4991042;28;20105;-62
2023/01/11 02:03:56;;;;;;;2.45;1.00;;;;;;;;;;4958848;28;20062;-68
2023/01/11 02:06:26;;;;;;;1.80;0.80;;;;;;;;;;4990437;28;20067;-64
2023/01/11 02:09:03;;;;;;;1.65;0.75;;;;;;;;;;4990915;28;20063;-66
2023/01/11 02:11:42;;;;;;;1.58;0.60;;;;;;;;;;4970926;28;20050;-64
2023/01/11 02:14:15;;;;;;;1.58;0.65;;;;;;;;;;4971291;28;20530;-63
2023/01/11 02:16:46;;;;;;;3.05;0.77;;;;;;;;;;4990316;28;20061;-63
2023/01/11 02:19:40;;;;;;;2.33;0.70;;;;;;;;;;4942288;28;20057;-63
2023/01/11 02:22:23;;;;;;;2.00;0.60;;;;;;;;;;4990482;28;20082;-66
2023/01/11 02:25:23;;;;;;;1.85;0.80;;;;;;;;;;4958185;28;20058;-63
2023/01/11 02:28:33;;;;;;;2.35;0.70;;;;;;;;;;4951596;29;20059;-63
2023/01/11 02:31:14;;;;;;;1.40;0.75;;;;;;;;;;4894521;29;20064;-63
2023/01/11 02:33:51;;;;;;;2.80;0.70;;;;;;;;;;4863599;29;20205;-62
2023/01/11 02:36:21;;;;;;;1.90;0.68;;;;;;;;;;4894635;29;20442;-62
2023/01/11 02:39:24;;;;;;;1.70;0.70;;;;;;;;;;4894129;29;20052;-62
2023/01/11 02:45:42;;;;;;;3.30;0.70;;;;;;;;;;4857822;29;20068;-63
2023/01/11 02:48:31;;;;;;;2.20;0.60;;;;;;;;;;4872480;29;20106;-63
2023/01/11 02:51:11;;;;;;;2.83;0.55;;;;;;;;;;4857106;29;20072;-62
2023/01/11 02:54:00;;;;;;;1.63;0.70;;;;;;;;;;4872311;29;20061;-63
2023/01/11 02:56:34;;;;;;;2.38;0.80;;;;;;;;;;4857086;29;20068;-63
2023/01/11 02:59:08;;;;;;;2.28;0.60;;;;;;;;;;4890685;29;20502;-64
2023/01/11 03:01:52;;;;;;;2.03;0.55;;;;;;;;;;4875402;29;20065;-63
2023/01/11 03:04:36;;;;;;;1.95;0.80;;;;;;;;;;4892287;28;20059;-63
2023/01/11 03:07:38;;;;;;;1.38;0.60;;;;;;;;;;4950985;28;20062;-64
2023/01/11 03:10:29;;;;;;;1.70;0.43;;;;;;;;;;4950719;28;20051;-63
2023/01/11 03:13:05;;;;;;;1.23;0.60;;;;;;;;;;4982133;28;20408;-63
2023/01/11 03:16:09;;;;;;;3.50;1.17;;;;;;;;;;4901959;28;20056;-63
2023/01/11 03:18:54;;;;;;;3.10;0.80;;;;;;;;;;4950701;28;20626;-64
2023/01/11 03:21:47;;;;;;;2.83;0.70;;;;;;;;;;4933683;28;20058;-65
2023/01/11 03:24:26;;;;;;;3.75;1.00;;;;;;;;;;5008790;28;20061;-64
2023/01/11 03:27:07;;;;;;;4.40;0.80;;;;;;;;;;4960574;28;20138;-64
2023/01/11 03:29:43;;;;;;;1.52;0.90;;;;;;;;;;5009028;28;20061;-66
2023/01/11 03:32:21;;;;;;;1.38;0.60;;;;;;;;;;5008811;28;20053;-64
2023/01/11 03:35:31;;;;;;;2.28;0.50;;;;;;;;;;5008799;28;20042;-64
2023/01/11 03:38:12;;;;;;;5.07;0.65;;;;;;;;;;5048661;28;20049;-64
2023/01/11 03:40:48;;;;;;;2.15;0.50;;;;;;;;;;5032307;28;20068;-66
2023/01/11 03:43:21;;;;;;;1.85;0.70;;;;;;;;;;4992234;28;20041;-63
2023/01/11 03:46:00;;;;;;;1.65;0.77;;;;;;;;;;5011132;28;20077;-66
2023/01/11 03:48:35;;;;;;;1.55;0.68;;;;;;;;;;5028780;28;20057;-65
2023/01/11 03:51:10;;;;;;;2.70;0.60;;;;;;;;;;5028771;28;20056;-63
2023/01/11 03:53:45;;;;;;;1.80;0.70;;;;;;;;;;5028165;28;20065;-64
2023/01/11 03:56:20;;;;;;;2.65;0.80;;;;;;;;;;4995711;28;20045;-64
2023/01/11 03:58:50;;;;;;;1.52;0.65;;;;;;;;;;5028240;28;20049;-64
2023/01/11 04:01:20;;;;;;;3.55;0.80;;;;;;;;;;5011865;28;20057;-64
2023/01/11 04:03:50;;;;;;;5.03;1.38;;;;;;;;;;5028524;28;20215;-64
2023/01/11 04:06:23;;;;;;;2.88;0.85;;;;;;;;;;5028383;28;20148;-63
2023/01/11 04:08:52;;;;;;;;;;;;;;;;;;5028829;28;20156;-63
2023/01/11 04:11:22;;;;;;;2.60;0.90;;;;;;;;;;5028442;28;20024;-63
2023/01/11 04:13:52;;;;;;;1.60;0.68;;;;;;;;;;5028295;28;20073;-66
2023/01/11 04:16:22;;;;;;;2.00;1.00;;;;;;;;;;5028221;28;20052;-65
2023/01/11 04:18:52;;;;;;;1.65;0.60;;;;;;;;;;5028218;28;20050;-64
2023/01/11 04:21:22;;;;;;;2.90;0.98;;;;;;;;;;5043188;28;20092;-65
2023/01/11 04:23:52;;;;;;;2.33;0.73;;;;;;;;;;5052857;28;20045;-64
2023/01/11 04:26:22;;;;;;;3.60;1.10;;;;;;;;;;5054512;28;20400;-67
2023/01/11 04:28:52;;;;;;;1.38;0.80;;;;;;;;;;5054471;28;20044;-64
2023/01/11 04:31:22;;;;;;;2.72;0.77;;;;;;;;;;5054018;28;20048;-66
2023/01/11 04:33:52;;;;;;;1.45;0.75;;;;;;;;;;5068518;28;20068;-64
2023/01/11 04:36:22;;;;;;;3.00;1.00;;;;;;;;;;5054343;28;20052;-63
2023/01/11 04:38:52;;;;;;;1.55;0.73;;;;;;;;;;5054037;28;20048;-63
2023/01/11 04:44:11;;;;;;;2.15;1.08;;;;;;;;;;5035080;28;20068;-63
2023/01/11 04:46:41;;;;;;;1.85;0.65;;;;;;;;;;5054202;28;20037;-66
2023/01/11 04:49:12;;;;;;;1.75;0.70;;;;;;;;;;5035232;28;20052;-63
2023/01/11 04:51:42;;;;;;;1.45;0.60;;;;;;;;;;5038131;28;20420;-63
2023/01/11 04:54:12;;;;;;;2.30;0.70;;;;;;;;;;5031391;28;20053;-63
2023/01/11 04:56:42;;;;;;;3.25;0.70;;;;;;;;;;5031637;28;20060;-64
2023/01/11 04:59:13;;;;;;;1.50;0.63;;;;;;;;;;5031263;28;20049;-68
2023/01/11 05:01:43;;;;;;;1.48;0.77;;;;;;;;;;5031429;28;20120;-63
2023/01/11 05:04:13;;;;;;;1.52;0.80;;;;;;;;;;4982413;28;20061;-64
2023/01/11 05:06:43;;;;;;;2.47;0.90;;;;;;;;;;4998319;28;20053;-64
2023/01/11 05:09:17;;;;;;;3.85;0.82;;;;;;;;;;5014579;28;20493;-64
2023/01/11 05:11:47;;;;;;;4.05;0.90;;;;;;;;;;4997992;28;20064;-64
2023/01/11 05:14:18;;;;;;;1.08;0.60;;;;;;;;;;5031349;28;20049;-63
2023/01/11 05:16:48;;;;;;;3.95;1.08;;;;;;;;;;5014402;28;20068;-63
2023/01/11 05:19:18;;;;;;;4.22;1.00;;;;;;;;;;5014857;28;20054;-64
2023/01/11 05:21:48;;;;;;;3.10;0.68;;;;;;;;;;4998181;28;20149;-63
2023/01/11 05:24:18;;;;;;;4.60;0.75;;;;;;;;;;4998006;28;20064;-64
2023/01/11 05:26:49;;;;;;;4.15;0.90;;;;;;;;;;5030937;28;20452;-64
2023/01/11 05:29:20;;;;;;;2.58;1.00;;;;;;;;;;5030859;28;20052;-64
2023/01/11 05:31:50;;;;;;;5.70;1.20;;;;;;;;;;5018527;28;20056;-64
2023/01/11 05:34:20;;;;;;;1.25;0.60;;;;;;;;;;4972608;28;20060;-64
2023/01/11 05:36:50;;;;;;;2.95;0.80;;;;;;;;;;5073237;28;20055;-64
2023/01/11 05:39:21;;;;;;;3.03;0.90;;;;;;;;;;5037780;28;20064;-63
2023/01/11 05:41:52;;;;;;;2.92;1.08;;;;;;;;;;5073006;28;20049;-64
2023/01/11 05:47:09;;;;;;;5.60;0.90;;;;;;;;;;5072979;28;20040;-64
2023/01/11 05:49:40;;;;;;;5.78;0.80;;;;;;;;;;5073070;28;20045;-64
2023/01/11 05:52:10;;;;;;;2.58;0.80;;;;;;;;;;5020864;28;20057;-63
2023/01/11 05:54:40;;;;;;;2.45;1.25;;;;;;;;;;5037117;28;20385;-63
2023/01/11 05:57:10;;;;;;;2.50;0.90;;;;;;;;;;5021001;28;20049;-64
2023/01/11 05:59:40;;;;;;;7.75;0.90;;;;;;;;;;5072819;28;20511;-64
2023/01/11 06:02:10;;;;;;;4.47;1.00;;;;;;;;;;5072615;28;20400;-64
2023/01/11 06:04:40;;;;;;;2.90;0.82;;;;;;;;;;5072598;28;20048;-64
2023/01/11 06:07:12;;;;;;;4.30;1.00;;;;;;;;;;5072513;28;20045;-64
2023/01/11 06:09:42;;;;;;;4.18;0.93;;;;;;;;;;5022686;28;20535;-63
2023/01/11 06:12:11;;;;;;;3.80;0.90;;;;;;;;;;5072258;28;20056;-63
2023/01/11 06:14:42;;;;;;;5.78;0.98;;;;;;;;;;5029978;28;20057;-63
2023/01/11 06:17:11;;;;;;;3.00;1.10;;;;;;;;;;4996988;28;20057;-63
2023/01/11 06:19:42;;;;;;;2.78;0.80;;;;;;;;;;5013102;28;20061;-63
2023/01/11 06:22:11;;;;;;;7.90;1.08;;;;;;;;;;5010118;28;20054;-63
2023/01/11 06:24:41;;;;;;;1.70;0.88;;;;;;;;;;4990534;28;20057;-63
2023/01/11 06:27:11;;;;;;;2.22;0.85;;;;;;;;;;4974057;28;20133;-65
2023/01/11 06:29:41;;;;;;;3.75;1.10;;;;;;;;;;4958082;28;20073;-63
2023/01/11 06:32:11;;;;;;;8.38;1.00;;;;;;;;;;4990083;28;20078;-64
2023/01/11 06:34:40;;;;;;;3.28;0.75;;;;;;;;;;4990328;28;20058;-64
2023/01/11 06:37:11;;;;;;;2.75;0.80;;;;;;;;;;4990352;28;20050;-63
2023/01/11 06:39:41;;;;;;;4.45;0.90;;;;;;;;;;4974294;28;20065;-67
2023/01/11 06:42:11;;;;;;;2.55;1.00;;;;;;;;;;4990032;28;20441;-63
2023/01/11 06:44:41;;;;;;;1.90;0.85;;;;;;;;;;4958363;28;20046;-64
2023/01/11 06:47:11;;;;;;;2.03;0.80;;;;;;;;;;4989790;28;20065;-65
2023/01/11 06:49:41;;;;;;;6.20;1.00;;;;;;;;;;4957527;28;20058;-63
2023/01/11 06:52:12;;;;;;;13.82;1.38;;;;;;;;;;4998172;28;20073;-63
2023/01/11 06:54:42;;;;;;;2.67;0.90;;;;;;;;;;5009766;28;20057;-63
2023/01/11 06:57:12;;;;;;;3.80;1.00;;;;;;;;;;4960245;28;20050;-63
2023/01/11 06:59:42;;;;;;;2.20;1.00;;;;;;;;;;4976780;28;20490;-63
2023/01/11 07:02:13;;;;;;;6.25;0.90;;;;;;;;;;4989439;28;20050;-64
2023/01/11 07:04:43;;;;;;;2.33;1.00;;;;;;;;;;4989945;28;20062;-63
2023/01/11 07:07:13;;;;;;;3.58;1.13;;;;;;;;;;4957363;28;20407;-70
2023/01/11 07:09:43;;;;;;;2.25;0.95;;;;;;;;;;4989430;28;20069;-64
2023/01/11 07:12:12;;;;;;;4.00;1.10;;;;;;;;;;4973346;28;20054;-64
2023/01/11 07:14:43;;;;;;;3.20;1.00;;;;;;;;;;4989649;28;20058;-63
2023/01/11 07:17:14;;;;;;;2.78;1.10;;;;;;;;;;4989801;28;20050;-64
2023/01/11 07:19:44;;;;;;;4.43;0.80;;;;;;;;;;4957143;28;20054;-64
2023/01/11 07:22:14;;;;;;;5.38;1.13;;;;;;;;;;4992522;28;20046;-64
2023/01/11 07:24:44;;;;;;;2.40;1.10;;;;;;;;;;4993092;28;20061;-64
2023/01/11 07:27:16;;;;;;;3.03;1.10;;;;;;;;;;4976792;28;20129;-65
2023/01/11 07:29:47;;;;;;;2.80;0.80;;;;;;;;;;5008988;28;20050;-63
2023/01/11 07:32:17;;;;;;;6.20;1.10;;;;;;;;;;5008895;28;20057;-64
2023/01/11 07:34:47;;;;;;;3.05;0.90;;;;;;;;;;4959911;28;20066;-63
2023/01/11 07:37:17;;;;;;;5.75;1.10;;;;;;;;;;4976568;28;20054;-63
2023/01/11 07:39:57;;;;;;;4.65;1.35;;;;;;;;;;5001612;28;20145;-66
2023/01/11 07:45:16;;;;;;;2.80;0.80;;;;;;;;;;5021349;28;20412;-62
2023/01/11 07:47:50;;;;;;;5.35;1.05;;;;;;;;;;5048227;28;20049;-66
2023/01/11 07:50:20;;;;;;;4.38;0.85;;;;;;;;;;5015130;28;20519;-64
2023/01/11 07:52:51;;;;;;;1.58;0.85;;;;;;;;;;5047952;28;20052;-65
2023/01/11 07:55:20;;;;;;;5.10;0.90;;;;;;;;;;5048651;28;20057;-63
2023/01/11 07:57:55;;;;;;;3.97;1.02;;;;;;;;;;5050483;28;20164;-63
2023/01/11 08:00:26;;;;;;;1.85;1.25;;;;;;;;;;5040453;28;20405;-63
2023/01/11 08:02:56;;;;;;;3.47;1.17;;;;;;;;;;4966113;28;20061;-63
2023/01/11 08:05:26;;;;;;;4.00;1.15;;;;;;;;;;4966151;28;20764;-63
2023/01/11 08:07:56;;;;;;;2.60;0.85;;;;;;;;;;5014898;28;20062;-62
2023/01/11 08:10:27;;;;;;;3.63;1.00;;;;;;;;;;5015235;28;20053;-63
2023/01/11 08:15:45;;;;;;;10.23;1.30;;;;;;;;;;4979051;28;20054;-63
2023/01/11 08:18:18;;;;;;;2.30;1.00;;;;;;;;;;4995350;28;20469;-63
2023/01/11 08:20:52;;;;;;;3.25;1.10;;;;;;;;;;5010504;28;20057;-66
2023/01/11 08:23:22;;;;;;;5.53;0.93;;;;;;;;;;5034572;28;20049;-63
2023/01/11 08:25:56;;;;;;;3.42;1.10;;;;;;;;;;5034754;28;20064;-63
2023/01/11 08:28:26;;;;;;;5.55;0.90;;;;;;;;;;5018362;28;20061;-63
2023/01/11 08:30:56;;;;;;;4.30;0.93;;;;;;;;;;4955973;28;20067;-65
2023/01/11 08:33:27;;;;;;;6.00;0.90;;;;;;;;;;4917759;29;20060;-63
2023/01/11 08:35:57;;;;;;;3.28;1.30;;;;;;;;;;4918049;29;20075;-63
2023/01/11 08:38:26;;;;;;;2.88;1.10;;;;;;;;;;4880291;29;20053;-63
2023/01/11 08:40:56;;;;;;;5.60;1.05;;;;;;;;;;4905637;29;20060;-65
2023/01/11 08:43:27;;;;;;;4.03;1.65;;;;;;;;;;4917718;29;20685;-64
2023/01/11 08:45:57;;;;;;;5.65;0.93;;;;;;;;;;4886724;29;20052;-63
2023/01/11 08:48:28;;;;;;;3.65;1.23;;;;;;;;;;4917993;29;20064;-62
2023/01/11 08:50:58;;;;;;;3.83;0.98;;;;;;;;;;4883699;29;20103;-63
2023/01/11 08:53:28;;;;;;;4.20;1.00;;;;;;;;;;4921468;29;20055;-63
2023/01/11 08:55:59;;;;;;;2.53;0.98;;;;;;;;;;4917890;29;20048;-63
2023/01/11 08:58:29;;;;;;;4.38;0.93;;;;;;;;;;4898687;29;20437;-64
2023/01/11 09:01:01;;;;;;;3.15;0.90;;;;;;;;;;4869797;29;20052;-63
2023/01/11 09:03:31;;;;;;;4.50;0.93;;;;;;;;;;4937055;29;20563;-63
2023/01/11 09:06:01;;;;;;;2.10;1.08;;;;;;;;;;4937108;29;20047;-66
2023/01/11 09:08:31;;;;;;;4.65;1.83;;;;;;;;;;4945433;28;20059;-64
2023/01/11 09:11:52;;;;;;;2.88;0.90;;;;;;;;;;4961958;28;20058;-64
2023/01/11 09:13:52;;;;;;;2.15;0.88;;;;;;;;;;4972146;28;20067;-63
2023/01/11 09:16:22;;;;;;;7.25;1.30;;;;;;;;;;4951743;28;20061;-63
2023/01/11 09:18:52;;;;;;;4.63;1.42;;;;;;;;;;4991384;28;20057;-63
2023/01/11 09:21:22;;;;;;;3.88;1.45;;;;;;;;;;4959301;28;20054;-64
2023/01/11 09:23:52;;;;;;;4.85;1.63;;;;;;;;;;4943074;28;20054;-63
2023/01/11 09:26:22;;;;;;;3.38;1.30;;;;;;;;;;4991579;28;20054;-63
2023/01/11 09:28:52;;;;;;;2.17;1.02;;;;;;;;;;4942970;28;20490;-63
2023/01/11 09:31:21;;;;;;;2.80;0.90;;;;;;;;;;4991185;28;20081;-63
2023/01/11 09:33:52;;;;;;;3.28;0.82;;;;;;;;;;5014919;28;20061;-63
2023/01/11 09:36:23;;;;;;;2.00;0.93;;;;;;;;;;4988706;28;20064;-63
2023/01/11 09:38:56;;;;;;;2.17;0.95;;;;;;;;;;5073137;28;20051;-63
2023/01/11 09:41:45;;;;;;;;;;;;;;;;;;5038127;28;20057;-63
2023/01/11 09:44:24;;;;;;;5.50;1.40;;;;;;;;;;5004418;28;19924;-63
2023/01/11 09:47:03;;;;;;;3.03;0.88;;;;;;;;;;5021239;28;20497;-66
2023/01/11 09:49:39;;;;;;;;;;;;;;;;;;5056956;28;20052;-64
2023/01/11 09:52:37;;;;;;;2.40;1.80;;;;;;;;;;5017380;28;20315;-63
2023/01/11 09:55:14;;;;;;;;;;;;;;;;;;5053376;28;20048;-64
2023/01/11 09:57:50;;;;;;;2.83;0.95;;;;;;;;;;5052560;28;19932;-63
2023/01/11 10:00:59;;;;;;;3.90;1.30;;;;;;;;;;5052756;28;20049;-64
2023/01/11 10:03:50;;;;;;;7.05;1.40;;;;;;;;;;5014002;28;20057;-64
2023/01/11 10:06:38;;;;;;;2.05;1.10;;;;;;;;;;4997525;28;20061;-64
2023/01/11 10:09:27;;;;;;;4.05;1.20;;;;;;;;;;4997323;28;20569;-63
2023/01/11 10:12:47;;;;;;;7.97;1.23;;;;;;;;;;5006859;28;20061;-64
2023/01/11 10:16:10;;;;;;;8.55;1.30;;;;;;;;;;4977259;28;20069;-64
2023/01/11 10:19:15;;;;;;;4.35;1.38;;;;;;;;;;4952101;29;20058;-64
2023/01/11 10:22:30;;;;;;;3.83;1.45;;;;;;;;;;4951128;28;20130;-63
2023/01/11 10:25:00;;;;;;;2.88;1.52;;;;;;;;;;4951763;29;20047;-65
2023/01/11 10:27:36;;;;;;;3.58;1.50;;;;;;;;;;4951613;29;20063;-64
2023/01/11 10:33:41;;;;;;;7.15;1.40;;;;;;;;;;4951573;29;20078;-63
2023/01/11 10:36:54;;;;;;;9.98;1.75;;;;;;;;;;4951427;29;20055;-63
2023/01/11 10:42:46;;;;;;;3.38;1.25;;;;;;;;;;4942389;28;20066;-62
2023/01/11 10:45:17;;;;;;;;;;;;;;;;;;4970464;28;20047;-63
2023/01/11 10:48:01;;;;;;;6.07;1.63;;;;;;;;;;4970276;28;19929;-63
2023/01/11 10:51:00;;;;;;;6.90;1.70;;;;;;;;;;4938210;28;20047;-63
2023/01/11 10:53:43;;;;;;;3.03;1.30;;;;;;;;;;4975508;28;20066;-64
2023/01/11 10:56:33;;;;;;;4.80;1.42;;;;;;;;;;5009203;28;20057;-62
2023/01/11 10:59:20;;;;;;;5.00;1.55;;;;;;;;;;4960504;28;21189;-63
2023/01/11 11:02:01;;;;;;;6.50;1.90;;;;;;;;;;5009302;28;20050;-63
2023/01/11 11:05:08;;;;;;;7.95;1.40;;;;;;;;;;5009051;28;20053;-64
2023/01/11 11:07:51;;;;;;;6.72;1.30;;;;;;;;;;5009099;28;20062;-63
2023/01/11 11:10:26;;;;;;;5.03;1.60;;;;;;;;;;5009083;28;20074;-64
2023/01/11 11:13:29;;;;;;;6.45;1.70;;;;;;;;;;5009165;28;20525;-63
2023/01/11 11:16:21;;;;;;;5.38;1.63;;;;;;;;;;5009050;28;20406;-64
2023/01/11 11:18:57;;;;;;;3.35;1.38;;;;;;;;;;5013928;28;20061;-63
2023/01/11 11:21:36;;;;;;;4.32;1.35;;;;;;;;;;4963460;28;20045;-63
2023/01/11 11:24:26;;;;;;;4.20;1.17;;;;;;;;;;5015102;28;20056;-66
2023/01/11 11:27:03;;;;;;;2.20;1.05;;;;;;;;;;5050911;28;20080;-66
2023/01/11 11:29:42;;;;;;;7.43;1.33;;;;;;;;;;5051150;28;20049;-63
2023/01/11 11:32:16;;;;;;;;;;;;;;;;;;5015453;28;20064;-63
2023/01/11 11:34:50;;;;;;;3.58;1.35;;;;;;;;;;5032204;28;19939;-63
2023/01/11 11:37:32;;;;;;;2.00;1.00;;;;;;;;;;5050835;28;20041;-65
2023/01/11 11:40:02;;;;;;;7.35;1.48;;;;;;;;;;5050836;28;20531;-65
2023/01/11 11:42:32;;;;;;;6.63;1.08;;;;;;;;;;5064828;28;20053;-64
2023/01/11 11:45:08;;;;;;;4.50;1.10;;;;;;;;;;5050822;28;20045;-64
2023/01/11 11:47:39;;;;;;;3.40;1.83;;;;;;;;;;5065191;28;20382;-64
2023/01/11 11:50:18;;;;;;;8.60;1.52;;;;;;;;;;4998985;28;20056;-64
2023/01/11 11:53:24;;;;;;;3.05;1.20;;;;;;;;;;5049857;28;20048;-64
2023/01/11 11:55:54;;;;;;;3.10;1.27;;;;;;;;;;5034581;28;20056;-65
2023/01/11 11:58:25;;;;;;;2.78;1.30;;;;;;;;;;5066749;28;20052;-64
2023/01/11 12:00:56;;;;;;;4.22;1.48;;;;;;;;;;5070494;28;20353;-64
2023/01/11 12:03:31;;;;;;;4.75;1.48;;;;;;;;;;5054848;28;20056;-66
2023/01/11 12:06:06;;;;;;;3.08;1.30;;;;;;;;;;5098656;28;20052;-65
2023/01/11 12:08:36;;;;;;;5.28;1.13;;;;;;;;;;5034759;28;20060;-65
2023/01/11 12:11:14;;;;;;;3.53;1.30;;;;;;;;;;5070197;28;20036;-66
2023/01/11 12:13:58;;;;;;;4.60;1.10;;;;;;;;;;5070352;28;20036;-65
2023/01/11 12:16:44;;;;;;;4.53;1.33;;;;;;;;;;5068035;28;20044;-66
2023/01/11 12:19:34;;;;;;;3.22;1.33;;;;;;;;;;5069904;28;20056;-65
2023/01/11 12:22:11;;;;;;;5.00;2.00;;;;;;;;;;5068651;28;20044;-65
2023/01/11 12:24:42;;;;;;;4.75;1.40;;;;;;;;;;5083964;28;20044;-66
2023/01/11 12:27:27;;;;;;;2.17;1.13;;;;;;;;;;5047356;28;20057;-65
2023/01/11 12:30:08;;;;;;;6.07;5.40;;;;;;;;;;4991550;28;20057;-65
2023/01/11 12:32:56;;;;;;;4.03;2.22;;;;;;;;;;5007502;28;20058;-64
2023/01/11 12:35:47;;;;;;;2.58;2.28;;;;;;;;;;5007911;28;20058;-65
2023/01/11 12:38:17;;;;;;;4.50;2.00;;;;;;;;;;5007629;28;20191;-66
2023/01/11 12:41:45;;;;;;;4.35;1.20;;;;;;;;;;5024026;28;20069;-65
2023/01/11 12:44:15;;;;;;;;;;;;;;;;;;4897025;29;20541;-65
2023/01/11 12:47:23;;;;;;;2.80;1.55;;;;;;;;;;4915360;29;19930;-64
2023/01/11 12:50:00;;;;;;;1.58;1.00;;;;;;;;;;4846594;29;20064;-65
2023/01/11 12:52:30;;;;;;;3.25;1.20;;;;;;;;;;4877271;29;20057;-65
2023/01/11 12:55:03;;;;;;;2.58;1.10;;;;;;;;;;4876927;29;20049;-64
2023/01/11 12:58:06;;;;;;;3.22;1.02;;;;;;;;;;4886168;29;20410;-65
2023/01/11 13:01:18;;;;;;;3.08;1.42;;;;;;;;;;4881430;29;20067;-65
2023/01/11 13:03:52;;;;;;;3.58;1.48;;;;;;;;;;4818621;29;20066;-66
2023/01/11 13:06:22;;;;;;;3.63;1.38;;;;;;;;;;4831009;29;20070;-67
2023/01/11 13:09:33;;;;;;;4.03;2.00;;;;;;;;;;4866766;29;20061;-65
2023/01/11 13:12:13;;;;;;;5.38;2.67;;;;;;;;;;4857889;29;20057;-67
2023/01/11 13:15:02;;;;;;;3.72;1.98;;;;;;;;;;4812204;29;20478;-65
2023/01/11 13:17:51;;;;;;;5.47;1.73;;;;;;;;;;4858046;29;20577;-66
2023/01/11 13:20:46;;;;;;;3.30;1.60;;;;;;;;;;4865102;29;20088;-65
2023/01/11 13:23:44;;;;;;;4.45;1.90;;;;;;;;;;4876859;29;20553;-66
2023/01/11 13:26:29;;;;;;;1.77;1.13;;;;;;;;;;4887310;29;20535;-65
2023/01/11 13:29:06;;;;;;;3.13;1.00;;;;;;;;;;4933164;29;20504;-63
2023/01/11 13:31:37;;;;;;;1.10;0.60;;;;;;;;;;4935084;28;20063;-65
2023/01/11 13:34:41;;;;;;;1.35;0.60;;;;;;;;;;4924031;28;20051;-65
2023/01/11 13:37:39;;;;;;;1.65;0.80;;;;;;;;;;4939520;28;20051;-63
2023/01/11 13:40:33;;;;;;;1.20;0.35;;;;;;;;;;4946466;28;20049;-65
2023/01/11 13:43:37;;;;;;;1.10;0.60;;;;;;;;;;4990605;28;20054;-64
2023/01/11 13:46:30;;;;;;;0.98;0.82;;;;;;;;;;4974474;28;20494;-65
2023/01/11 13:49:39;;;;;;;2.45;0.60;;;;;;;;;;4975647;28;20058;-64
2023/01/11 13:52:17;;;;;;;1.27;0.60;;;;;;;;;;4970952;28;20098;-65
2023/01/11 13:55:19;;;;;;;0.98;0.65;;;;;;;;;;4971202;28;20063;-64
2023/01/11 13:58:36;;;;;;;0.50;0.40;;;;;;;;;;4971038;28;20046;-66
2023/01/11 14:01:29;;;;;;;2.15;0.75;;;;;;;;;;4970799;28;20670;-67
2023/01/11 14:04:28;;;;;;;1.10;0.52;;;;;;;;;;4940785;29;20058;-65
2023/01/11 14:07:11;;;;;;;1.08;0.70;;;;;;;;;;4949477;29;20530;-65
2023/01/11 14:09:59;;;;;;;0.60;0.50;;;;;;;;;;4934754;29;20051;-66
2023/01/11 14:12:46;;;;;;;1.40;0.50;;;;;;;;;;4903136;29;20055;-65
2023/01/11 14:15:50;;;;;;;2.75;1.17;;;;;;;;;;4888966;29;20047;-65
2023/01/11 14:18:38;;;;;;;6.82;1.10;;;;;;;;;;4948608;29;20047;-65
2023/01/11 14:21:25;;;;;;;0.80;0.50;;;;;;;;;;4949856;29;20047;-64
2023/01/11 14:23:57;;;;;;;2.58;0.70;;;;;;;;;;4951207;29;20074;-64
2023/01/11 14:26:48;;;;;;;1.25;0.60;;;;;;;;;;4971978;28;20054;-64
2023/01/11 14:29:46;;;;;;;1.75;1.20;;;;;;;;;;5012500;28;20424;-63
2023/01/11 14:32:34;;;;;;;3.10;0.82;;;;;;;;;;5047026;28;20552;-64
2023/01/11 14:35:08;;;;;;;6.18;1.65;;;;;;;;;;5049001;28;20064;-64
2023/01/11 14:37:59;;;;;;;7.05;2.65;;;;;;;;;;5049558;28;20045;-63
2023/01/11 14:40:49;;;;;;;2.60;1.20;;;;;;;;;;5048297;28;20044;-64
2023/01/11 14:44:04;;;;;;;4.13;1.55;;;;;;;;;;5072083;28;20051;-64
2023/01/11 14:46:49;;;;;;;6.13;2.10;;;;;;;;;;4996223;28;20052;-65
2023/01/11 14:49:25;;;;;;;4.10;1.30;;;;;;;;;;5029072;28;20046;-64
2023/01/11 14:52:06;;;;;;;3.58;1.80;;;;;;;;;;5028890;28;20053;-65
2023/01/11 14:54:45;;;;;;;2.17;1.17;;;;;;;;;;4990886;28;20457;-66
2023/01/11 14:58:00;;;;;;;1.10;0.50;;;;;;;;;;5013712;28;20053;-65
2023/01/11 15:00:31;;;;;;;1.10;0.70;;;;;;;;;;5006568;28;20444;-62
2023/01/11 15:03:00;;;;;;;0.60;0.50;;;;;;;;;;5010620;28;20054;-65
2023/01/11 15:05:33;;;;;;;2.45;1.77;;;;;;;;;;5009314;28;20057;-65
2023/01/11 15:08:22;;;;;;;1.67;0.75;;;;;;;;;;4989470;28;20055;-65
2023/01/11 15:11:19;;;;;;;1.92;0.55;;;;;;;;;;4970337;28;20049;-66
2023/01/11 15:13:58;;;;;;;1.92;0.40;;;;;;;;;;4983664;28;20058;-65
2023/01/11 15:19:24;;;;;;;1.52;0.70;;;;;;;;;;5004278;28;20058;-63
2023/01/11 15:21:57;;;;;;;1.33;0.60;;;;;;;;;;4985797;28;20057;-65
2023/01/11 15:24:34;;;;;;;1.10;0.50;;;;;;;;;;4967140;28;20045;-64
2023/01/11 15:27:05;;;;;;;0.85;0.38;;;;;;;;;;5056468;28;20516;-64
2023/01/11 15:29:45;;;;;;;0.80;0.50;;;;;;;;;;4979569;28;20064;-64
2023/01/11 15:32:29;;;;;;;0.60;0.43;;;;;;;;;;5053647;28;20056;-64
2023/01/11 15:35:31;;;;;;;1.42;0.73;;;;;;;;;;5054081;28;20515;-65
2023/01/11 15:38:25;;;;;;;0.90;0.60;;;;;;;;;;4998514;28;20061;-63
2023/01/11 15:44:31;;;;;;;0.85;0.65;;;;;;;;;;4985518;28;20503;-63
2023/01/11 15:47:20;;;;;;;1.48;0.70;;;;;;;;;;4988323;28;20065;-65
2023/01/11 15:50:40;;;;;;;0.80;0.45;;;;;;;;;;4967016;28;20109;-64
2023/01/11 15:53:32;;;;;;;1.42;0.50;;;;;;;;;;4916491;28;20051;-65
2023/01/11 15:56:24;;;;;;;0.43;0.40;;;;;;;;;;4966094;28;20531;-64
2023/01/11 15:59:12;;;;;;;1.42;0.50;;;;;;;;;;4972064;28;20059;-64
2023/01/11 16:02:09;;;;;;;2.25;0.65;;;;;;;;;;4934005;28;20053;-64
2023/01/11 16:04:45;;;;;;;1.13;0.43;;;;;;;;;;4964088;28;20039;-65
2023/01/11 16:07:39;;;;;;;1.30;1.20;;;;;;;;;;4944220;28;20396;-65
2023/01/11 16:10:27;;;;;;;1.40;0.50;;;;;;;;;;4959795;28;20047;-64
2023/01/11 16:13:16;;;;;;;1.08;0.60;;;;;;;;;;4977475;28;20046;-65
2023/01/11 16:16:11;;;;;;;0.70;0.60;;;;;;;;;;4980204;28;20099;-65
2023/01/11 16:19:07;;;;;;;0.93;0.68;;;;;;;;;;4948859;28;20058;-65
2023/01/11 16:21:39;;;;;;;1.00;0.60;;;;;;;;;;4915023;29;20060;-64
2023/01/11 16:24:17;;;;;;;1.38;1.25;;;;;;;;;;4963608;28;20128;-66
2023/01/11 16:26:59;;;;;;;1.10;0.60;;;;;;;;;;4957607;28;20167;-66
2023/01/11 16:29:33;;;;;;;0.98;0.50;;;;;;;;;;4971140;28;20115;-66
2023/01/11 16:32:25;;;;;;;0.52;0.50;;;;;;;;;;4972076;28;20065;-66